Observation data for Goodlett on 02/15/2017      Previous  Date  Next       Current Mesonet Observations  Soil Data  Daily Summary Page  Observations in Plain Language
KGDS 150600Z 29011KT 03/00 A3013 RMK A01 T00310004  RH  083%=      5-min Rain = 0
KGDS 150605Z 29011KT 03/00 A3013 RMK A01 T00300004  RH  083%=      5-min Rain = 0
KGDS 150610Z 29011KT 03/00 A3013 RMK A01 T00300003  RH  084%=      5-min Rain = 0
KGDS 150615Z 29011KT 03/00 A3013 RMK A01 T00300003  RH  083%=      5-min Rain = 0
KGDS 150620Z 29011KT 03/00 A3013 RMK A01 T00280003  RH  084%=      5-min Rain = 0
KGDS 150625Z 29011KT 03/00 A3013 RMK A01 T00270002  RH  085%=      5-min Rain = 0
KGDS 150630Z 29011KT 03/00 A3013 RMK A01 T00260002  RH  085%=      5-min Rain = 0
KGDS 150635Z 29011KT 03/00 A3013 RMK A01 T00250002  RH  085%=      5-min Rain = 0
KGDS 150640Z 29011KT 03/00 A3013 RMK A01 T00250002  RH  086%=      5-min Rain = 0
KGDS 150645Z 29011KT 02/00 A3013 RMK A01 T00240002  RH  086%=      5-min Rain = 0
KGDS 150650Z 29010KT 03/00 A3013 RMK A01 T00250002  RH  086%=      5-min Rain = 0
KGDS 150655Z 29010KT 02/00 A3013 RMK A01 T00240002  RH  086%=      5-min Rain = 0
KGDS 150700Z 29009KT 02/00 A3013 RMK A01 T00230002  RH  087%=      5-min Rain = 0
KGDS 150705Z 29010KT 02/00 A3014 RMK A01 T00230002  RH  087%=      5-min Rain = 0
KGDS 150710Z 29010KT 02/00 A3014 RMK A01 T00240002  RH  087%=      5-min Rain = 0
KGDS 150715Z 29010KT 02/00 A3014 RMK A01 T00240002  RH  086%=      5-min Rain = 0
KGDS 150720Z 29010KT 02/00 A3014 RMK A01 T00240001  RH  086%=      5-min Rain = 0
KGDS 150725Z 29010KT 02/00 A3014 RMK A01 T00230001  RH  086%=      5-min Rain = 0
KGDS 150730Z 29009KT 02/00 A3014 RMK A01 T00220000  RH  086%=      5-min Rain = 0
KGDS 150735Z 29009KT 02/M00 A3014 RMK A01 T00211001  RH  086%=      5-min Rain = 0
KGDS 150740Z 29010KT 02/M00 A3014 RMK A01 T00211001  RH  087%=      5-min Rain = 0
KGDS 150745Z 29010KT 02/M00 A3014 RMK A01 T00201001  RH  087%=      5-min Rain = 0
KGDS 150750Z 29010KT 02/M00 A3014 RMK A01 T00201001  RH  087%=      5-min Rain = 0
KGDS 150755Z 29010KT 02/M00 A3014 RMK A01 T00201002  RH  087%=      5-min Rain = 0
KGDS 150800Z 30010KT 02/M00 A3014 RMK A01 T00201002  RH  087%=      5-min Rain = 0
KGDS 150805Z 30010KT 02/M00 A3015 RMK A01 T00201002  RH  087%=      5-min Rain = 0
KGDS 150810Z 30010KT 02/M00 A3015 RMK A01 T00201002  RH  086%=      5-min Rain = 0
KGDS 150815Z 30011KT 02/M00 A3015 RMK A01 T00201002  RH  086%=      5-min Rain = 0
KGDS 150820Z 30011KT 02/M00 A3015 RMK A01 T00201003  RH  086%=      5-min Rain = 0
KGDS 150825Z 30010KT 02/M00 A3015 RMK A01 T00191003  RH  086%=      5-min Rain = 0
KGDS 150830Z 30010KT 02/M00 A3015 RMK A01 T00191003  RH  086%=      5-min Rain = 0
KGDS 150835Z 30010KT 02/M00 A3015 RMK A01 T00191004  RH  086%=      5-min Rain = 0
KGDS 150840Z 30010KT 02/M00 A3015 RMK A01 T00181004  RH  086%=      5-min Rain = 0
KGDS 150845Z 30010KT 02/M01 A3015 RMK A01 T00171005  RH  086%=      5-min Rain = 0
KGDS 150850Z 29010KT 02/M01 A3015 RMK A01 T00161005  RH  087%=      5-min Rain = 0
KGDS 150855Z 30010KT 02/M01 A3015 RMK A01 T00151006  RH  087%=      5-min Rain = 0
KGDS 150900Z 29011KT 02/M01 A3015 RMK A01 T00151006  RH  087%=      5-min Rain = 0
KGDS 150905Z 29010KT 02/M01 A3015 RMK A01 T00151006  RH  087%=      5-min Rain = 0
KGDS 150910Z 29011KT 02/M01 A3015 RMK A01 T00151006  RH  087%=      5-min Rain = 0
KGDS 150915Z 29010KT 01/M01 A3015 RMK A01 T00141007  RH  087%=      5-min Rain = 0
KGDS 150920Z 30010KT 01/M01 A3015 RMK A01 T00141008  RH  087%=      5-min Rain = 0
KGDS 150925Z 29011KT 01/M01 A3015 RMK A01 T00141008  RH  087%=      5-min Rain = 0
KGDS 150930Z 29011KT 01/M01 A3016 RMK A01 T00141008  RH  086%=      5-min Rain = 0
KGDS 150935Z 30011KT 01/M01 A3016 RMK A01 T00141009  RH  086%=      5-min Rain = 0
KGDS 150940Z 30010KT 01/M01 A3016 RMK A01 T00131009  RH  086%=      5-min Rain = 0
KGDS 150945Z 30010KT 01/M01 A3016 RMK A01 T00131009  RH  086%=      5-min Rain = 0
KGDS 150950Z 30011KT 01/M01 A3016 RMK A01 T00131010  RH  086%=      5-min Rain = 0
KGDS 150955Z 30010KT 01/M01 A3016 RMK A01 T00121010  RH  086%=      5-min Rain = 0
KGDS 151000Z 30010KT 01/M01 A3016 RMK A01 T00111011  RH  086%=      5-min Rain = 0
KGDS 151005Z 30010KT 01/M01 A3016 RMK A01 T00111011  RH  086%=      5-min Rain = 0
KGDS 151010Z 29011KT 01/M01 A3016 RMK A01 T00111011  RH  086%=      5-min Rain = 0
KGDS 151015Z 30009KT 01/M01 A3016 RMK A01 T00101012  RH  086%=      5-min Rain = 0
KGDS 151020Z 30009KT 01/M01 A3016 RMK A01 T00101012  RH  086%=      5-min Rain = 0
KGDS 151025Z 30010KT 01/M01 A3016 RMK A01 T00111012  RH  086%=      5-min Rain = 0
KGDS 151030Z 30009KT 01/M01 A3017 RMK A01 T00111012  RH  086%=      5-min Rain = 0
KGDS 151035Z 30009KT 01/M01 A3017 RMK A01 T00101013  RH  086%=      5-min Rain = 0
KGDS 151040Z 30009KT 01/M01 A3017 RMK A01 T00091013  RH  086%=      5-min Rain = 0
KGDS 151045Z 30009KT 01/M01 A3017 RMK A01 T00091013  RH  086%=      5-min Rain = 0
KGDS 151050Z 30009KT 01/M01 A3017 RMK A01 T00091013  RH  086%=      5-min Rain = 0
KGDS 151055Z 30009KT 01/M01 A3017 RMK A01 T00081014  RH  086%=      5-min Rain = 0
KGDS 151100Z 30009KT 01/M01 A3017 RMK A01 T00081014  RH  086%=      5-min Rain = 0
KGDS 151105Z 31009KT 01/M01 A3017 RMK A01 T00091014  RH  086%=      5-min Rain = 0
KGDS 151110Z 31009KT 01/M01 A3017 RMK A01 T00101014  RH  085%=      5-min Rain = 0
KGDS 151115Z 31009KT 01/M01 A3017 RMK A01 T00111014  RH  084%=      5-min Rain = 0
KGDS 151120Z 31009KT 01/M02 A3018 RMK A01 T00091015  RH  085%=      5-min Rain = 0
KGDS 151125Z 31010KT 01/M01 A3018 RMK A01 T00111014  RH  084%=      5-min Rain = 0
KGDS 151130Z 31010KT 01/M02 A3018 RMK A01 T00101015  RH  084%=      5-min Rain = 0
KGDS 151135Z 31010KT 01/M02 A3018 RMK A01 T00091015  RH  085%=      5-min Rain = 0
KGDS 151140Z 31010KT 01/M02 A3018 RMK A01 T00081015  RH  085%=      5-min Rain = 0
KGDS 151145Z 31010KT 01/M02 A3019 RMK A01 T00081015  RH  085%=      5-min Rain = 0
KGDS 151150Z 31010KT 01/M02 A3019 RMK A01 T00081016  RH  085%=      5-min Rain = 0
KGDS 151155Z 31010KT 01/M02 A3019 RMK A01 T00081016  RH  085%=      5-min Rain = 0
KGDS 151200Z 31009KT 01/M02 A3019 RMK A01 T00071016  RH  085%=      5-min Rain = 0
KGDS 151205Z 31009KT 01/M02 A3019 RMK A01 T00071016  RH  085%=      5-min Rain = 0
KGDS 151210Z 32010KT 01/M02 A3019 RMK A01 T00071016  RH  085%=      5-min Rain = 0
KGDS 151215Z 32011KT 01/M02 A3019 RMK A01 T00091016  RH  085%=      5-min Rain = 0
KGDS 151220Z 32011KT 01/M02 A3019 RMK A01 T00111016  RH  084%=      5-min Rain = 0
KGDS 151225Z 32010KT 01/M02 A3019 RMK A01 T00121016  RH  083%=      5-min Rain = 0
KGDS 151230Z 32010KT 01/M02 A3019 RMK A01 T00111017  RH  082%=      5-min Rain = 0
KGDS 151235Z 32010KT 01/M02 A3019 RMK A01 T00111017  RH  083%=      5-min Rain = 0
KGDS 151240Z 32010KT 01/M02 A3019 RMK A01 T00101017  RH  083%=      5-min Rain = 0
KGDS 151245Z 32010KT 01/M02 A3019 RMK A01 T00081018  RH  084%=      5-min Rain = 0
KGDS 151250Z 32010KT 01/M02 A302 RMK A01 T00071017  RH  085%=      5-min Rain = 0
KGDS 151255Z 32009KT 01/M02 A302 RMK A01 T00071017  RH  084%=      5-min Rain = 0
KGDS 151300Z 31009KT 01/M02 A302 RMK A01 T00071018  RH  085%=      5-min Rain = 0
KGDS 151305Z 31008KT 01/M02 A302 RMK A01 T00061018  RH  085%=      5-min Rain = 0
KGDS 151310Z 31008KT 01/M02 A302 RMK A01 T00051018  RH  085%=      5-min Rain = 0
KGDS 151315Z 31008KT 01/M02 A3021 RMK A01 T00051018  RH  085%=      5-min Rain = 0
KGDS 151320Z 31008KT 01/M02 A3021 RMK A01 T00061018  RH  085%=      5-min Rain = 0
KGDS 151325Z 31009KT 01/M02 A3021 RMK A01 T00071018  RH  084%=      5-min Rain = 0
KGDS 151330Z 31009KT 01/M02 A3021 RMK A01 T00071018  RH  084%=      5-min Rain = 0
KGDS 151335Z 31009KT 01/M02 A3022 RMK A01 T00091018  RH  083%=      5-min Rain = 0
KGDS 151340Z 31008KT 01/M02 A3022 RMK A01 T00091018  RH  083%=      5-min Rain = 0
KGDS 151345Z 31008KT 01/M02 A3022 RMK A01 T00101018  RH  082%=      5-min Rain = 0
KGDS 151350Z 31008KT 01/M02 A3022 RMK A01 T00111018  RH  082%=      5-min Rain = 0
KGDS 151355Z 31008KT 01/M02 A3023 RMK A01 T00111017  RH  082%=      5-min Rain = 0
KGDS 151400Z 31008KT 01/M02 A3023 RMK A01 T00121016  RH  082%=      5-min Rain = 0
KGDS 151405Z 32008KT 01/M02 A3023 RMK A01 T00141016  RH  082%=      5-min Rain = 0
KGDS 151410Z 32009KT 01/M02 A3023 RMK A01 T00141015  RH  082%=      5-min Rain = 0
KGDS 151415Z 32009KT 01/M01 A3023 RMK A01 T00141014  RH  083%=      5-min Rain = 0
KGDS 151420Z 32009KT 01/M01 A3024 RMK A01 T00141014  RH  082%=      5-min Rain = 0
KGDS 151425Z 32009KT 02/M01 A3024 RMK A01 T00171013  RH  081%=      5-min Rain = 0
KGDS 151430Z 32009KT 02/M01 A3024 RMK A01 T00191012  RH  081%=      5-min Rain = 0
KGDS 151435Z 32009KT 02/M01 A3024 RMK A01 T00201011  RH  081%=      5-min Rain = 0
KGDS 151440Z 32009KT 02/M01 A3025 RMK A01 T00221010  RH  080%=      5-min Rain = 0
KGDS 151445Z 32009KT 03/M01 A3025 RMK A01 T00261009  RH  079%=      5-min Rain = 0
KGDS 151450Z 32009KT 03/M01 A3025 RMK A01 T00281008  RH  078%=      5-min Rain = 0
KGDS 151455Z 32009KT 03/M01 A3025 RMK A01 T00301006  RH  078%=      5-min Rain = 0
KGDS 151500Z 33009KT 03/M01 A3025 RMK A01 T00321006  RH  077%=      5-min Rain = 0
KGDS 151505Z 32008KT 04/M00 A3026 RMK A01 T00351003  RH  077%=      5-min Rain = 0
KGDS 151510Z 32009KT 04/M00 A3026 RMK A01 T00371002  RH  076%=      5-min Rain = 0
KGDS 151515Z 33009KT 04/M00 A3026 RMK A01 T00411003  RH  074%=      5-min Rain = 0
KGDS 151520Z 33009KT 05/M00 A3026 RMK A01 T00451002  RH  072%=      5-min Rain = 0
KGDS 151525Z 34009KT 05/M00 A3026 RMK A01 T00481002  RH  071%=      5-min Rain = 0
KGDS 151530Z 35009KT 05/M00 A3026 RMK A01 T00521002  RH  069%=      5-min Rain = 0
KGDS 151535Z 35009KT 06/00 A3026 RMK A01 T005500-0  RH  068%=      5-min Rain = 0
KGDS 151540Z 35010KT 06/M00 A3026 RMK A01 T00571001  RH  067%=      5-min Rain = 0
KGDS 151545Z 00011KT 06/M01 A3026 RMK A01 T00571006  RH  065%=      5-min Rain = 0
KGDS 151550Z 36010KT 06/M00 A3026 RMK A01 T00601001  RH  065%=      5-min Rain = 0
KGDS 151555Z 36011KT 06/M01 A3026 RMK A01 T00611006  RH  063%=      5-min Rain = 0
KGDS 151600Z 00010KT 06/M01 A3026 RMK A01 T00611008  RH  062%=      5-min Rain = 0
KGDS 151605Z 00010KT 06/M01 A3026 RMK A01 T00621008  RH  061%=      5-min Rain = 0
KGDS 151610Z 00010KT 06/M01 A3026 RMK A01 T00631009  RH  061%=      5-min Rain = 0
KGDS 151615Z 01009KT 07/M01 A3026 RMK A01 T00661008  RH  060%=      5-min Rain = 0
KGDS 151620Z 01008KT 07/M01 A3026 RMK A01 T00681009  RH  059%=      5-min Rain = 0
KGDS 151625Z 01008KT 07/M01 A3026 RMK A01 T00691008  RH  059%=      5-min Rain = 0
KGDS 151630Z 02008KT 07/M01 A3026 RMK A01 T00701011  RH  057%=      5-min Rain = 0
KGDS 151635Z 02008KT 07/M01 A3026 RMK A01 T00721013  RH  055%=      5-min Rain = 0
KGDS 151640Z 02008KT 07/M01 A3026 RMK A01 T00731012  RH  055%=      5-min Rain = 0
KGDS 151645Z 02008KT 07/M02 A3026 RMK A01 T00741018  RH  053%=      5-min Rain = 0
KGDS 151650Z 03008KT 08/M02 A3026 RMK A01 T00761019  RH  052%=      5-min Rain = 0
KGDS 151655Z 03007G12KT 08/M02 A3026 RMK A01 T00811015  RH  051%=      5-min Rain = 0
KGDS 151700Z 03006KT 08/M02 A3026 RMK A01 T00781019  RH  051%=      5-min Rain = 0
KGDS 151705Z 35006KT 08/M01 A3026 RMK A01 T00801014  RH  052%=      5-min Rain = 0
KGDS 151710Z 01007KT 08/M02 A3026 RMK A01 T00821018  RH  050%=      5-min Rain = 0
KGDS 151715Z 35006KT 08/M02 A3026 RMK A01 T00821019  RH  050%=      5-min Rain = 0
KGDS 151720Z 35007KT 08/M02 A3026 RMK A01 T00841021  RH  048%=      5-min Rain = 0
KGDS 151725Z 00007KT 09/M02 A3026 RMK A01 T00851023  RH  047%=      5-min Rain = 0
KGDS 151730Z 36005KT 09/M03 A3026 RMK A01 T00851031  RH  045%=      5-min Rain = 0
KGDS 151735Z 00008KT 09/M03 A3026 RMK A01 T00871033  RH  043%=      5-min Rain = 0
KGDS 151740Z 36006KT 09/M04 A3026 RMK A01 T00881038  RH  041%=      5-min Rain = 0
KGDS 151745Z 36006KT 09/M04 A3026 RMK A01 T00901035  RH  042%=      5-min Rain = 0
KGDS 151750Z 00007KT 09/M04 A3026 RMK A01 T00901044  RH  039%=      5-min Rain = 0
KGDS 151755Z 01007KT 09/M05 A3026 RMK A01 T00901048  RH  038%=      5-min Rain = 0
KGDS 151800Z 01007KT 09/M05 A3026 RMK A01 T00901048  RH  038%=      5-min Rain = 0
KGDS 151805Z 36006KT 09/M04 A3025 RMK A01 T00941040  RH  039%=      5-min Rain = 0
KGDS 151810Z 01007KT 10/M04 A3025 RMK A01 T00961038  RH  039%=      5-min Rain = 0
KGDS 151815Z 01006KT 10/M04 A3025 RMK A01 T00961044  RH  037%=      5-min Rain = 0
KGDS 151820Z 36004G10KT 10/M05 A3025 RMK A01 T00951049  RH  036%=      5-min Rain = 0
KGDS 151825Z 02004KT 10/M05 A3025 RMK A01 T00971050  RH  035%=      5-min Rain = 0
KGDS 151830Z 04005KT 10/M05 A3025 RMK A01 T00981050  RH  035%=      5-min Rain = 0
KGDS 151835Z 01004KT 10/M05 A3025 RMK A01 T00991045  RH  036%=      5-min Rain = 0
KGDS 151840Z 30002KT 10/M04 A3024 RMK A01 T01021043  RH  036%=      5-min Rain = 0
KGDS 151845Z 36002KT 10/M04 A3024 RMK A01 T01041041  RH  036%=      5-min Rain = 0
KGDS 151850Z 27003KT 10/M04 A3024 RMK A01 T01041036  RH  038%=      5-min Rain = 0
KGDS 151855Z 23002KT 11/M04 A3023 RMK A01 T01111038  RH  035%=      5-min Rain = 0
KGDS 151900Z 30005KT 11/M04 A3023 RMK A01 T01071035  RH  037%=      5-min Rain = 0
KGDS 151905Z 32006KT 11/M04 A3023 RMK A01 T01071036  RH  037%=      5-min Rain = 0
KGDS 151910Z 32001KT 11/M05 A3023 RMK A01 T01071046  RH  034%=      5-min Rain = 0
KGDS 151915Z 31002KT 11/M04 A3022 RMK A01 T01121040  RH  035%=      5-min Rain = 0
KGDS 151920Z 31006KT 11/M04 A3022 RMK A01 T01121039  RH  035%=      5-min Rain = 0
KGDS 151925Z 33004KT 11/M05 A3022 RMK A01 T01101045  RH  034%=      5-min Rain = 0
KGDS 151930Z 31007KT 11/M04 A3021 RMK A01 T01111041  RH  035%=      5-min Rain = 0
KGDS 151935Z 33004G10KT 11/M04 A3021 RMK A01 T01141037  RH  035%=      5-min Rain = 0
KGDS 151940Z 34006G11KT 12/M05 A3021 RMK A01 T01151051  RH  031%=      5-min Rain = 0
KGDS 151945Z 32008KT 11/M05 A3021 RMK A01 T01131045  RH  033%=      5-min Rain = 0
KGDS 151950Z 31004KT 11/M06 A3021 RMK A01 T01101057  RH  031%=      5-min Rain = 0
KGDS 151955Z 32005KT 11/M06 A302 RMK A01 T01121058  RH  030%=      5-min Rain = 0
KGDS 152000Z 36003KT 11/M06 A302 RMK A01 T01131057  RH  030%=      5-min Rain = 0
KGDS 152005Z 33003KT 12/M06 A302 RMK A01 T01151055  RH  030%=      5-min Rain = 0
KGDS 152010Z 33006KT 12/M05 A302 RMK A01 T01181049  RH  031%=      5-min Rain = 0
KGDS 152015Z 31005KT 12/M05 A302 RMK A01 T01171051  RH  031%=      5-min Rain = 0
KGDS 152020Z 31003KT 12/M06 A3019 RMK A01 T01171059  RH  029%=      5-min Rain = 0
KGDS 152025Z 02003G9KT 12/M06 A3019 RMK A01 T01191056  RH  029%=      5-min Rain = 0
KGDS 152030Z 02003KT 12/M06 A3019 RMK A01 T01181057  RH  029%=      5-min Rain = 0
KGDS 152035Z 35003KT 12/M05 A3019 RMK A01 T01211051  RH  030%=      5-min Rain = 0
KGDS 152040Z 30004KT 12/M05 A3018 RMK A01 T01201050  RH  031%=      5-min Rain = 0
KGDS 152045Z 31003G8KT 12/M05 A3018 RMK A01 T01241048  RH  030%=      5-min Rain = 0
KGDS 152050Z 28004KT 12/M04 A3018 RMK A01 T01231043  RH  032%=      5-min Rain = 0
KGDS 152055Z 30004KT 12/M05 A3018 RMK A01 T01231047  RH  031%=      5-min Rain = 0
KGDS 152100Z 30004KT 12/M04 A3017 RMK A01 T01221043  RH  032%=      5-min Rain = 0
KGDS 152105Z 30003KT 12/M05 A3017 RMK A01 T01211052  RH  030%=      5-min Rain = 0
KGDS 152110Z 23002KT 13/M05 A3017 RMK A01 T01251049  RH  030%=      5-min Rain = 0
KGDS 152115Z 31002KT 12/M05 A3017 RMK A01 T01241053  RH  029%=      5-min Rain = 0
KGDS 152120Z 30002G9KT 13/M04 A3016 RMK A01 T01301044  RH  030%=      5-min Rain = 0
KGDS 152125Z 32006G12KT 13/M04 A3016 RMK A01 T01261042  RH  031%=      5-min Rain = 0
KGDS 152130Z 31006KT 13/M04 A3016 RMK A01 T01261040  RH  032%=      5-min Rain = 0
KGDS 152135Z 32007KT 12/M04 A3016 RMK A01 T01231042  RH  032%=      5-min Rain = 0
KGDS 152140Z 33004KT 12/M05 A3016 RMK A01 T01241045  RH  031%=      5-min Rain = 0
KGDS 152145Z 28004KT 13/M05 A3016 RMK A01 T01251047  RH  030%=      5-min Rain = 0
KGDS 152150Z 24003KT 13/M05 A3015 RMK A01 T01261049  RH  029%=      5-min Rain = 0
KGDS 152155Z 26003KT 13/M04 A3015 RMK A01 T01291041  RH  031%=      5-min Rain = 0
KGDS 152200Z 31004KT 13/M05 A3015 RMK A01 T01281051  RH  029%=      5-min Rain = 0
KGDS 152205Z 28002G8KT 13/M05 A3015 RMK A01 T01291048  RH  029%=      5-min Rain = 0
KGDS 152210Z 32003KT 13/M05 A3015 RMK A01 T01281054  RH  028%=      5-min Rain = 0
KGDS 152215Z 28002KT 13/M05 A3014 RMK A01 T01301048  RH  029%=      5-min Rain = 0
KGDS 152220Z 28002KT 13/M05 A3014 RMK A01 T01321048  RH  028%=      5-min Rain = 0
KGDS 152225Z 36002KT 13/M05 A3014 RMK A01 T01311049  RH  028%=      5-min Rain = 0
KGDS 152230Z 36001KT 13/M05 A3014 RMK A01 T01321054  RH  027%=      5-min Rain = 0
KGDS 152235Z 04001KT 14/M05 A3014 RMK A01 T01351053  RH  027%=      5-min Rain = 0
KGDS 152240Z 22001KT 13/M05 A3013 RMK A01 T01341053  RH  027%=      5-min Rain = 0
KGDS 152245Z 26004KT 14/M04 A3013 RMK A01 T01351044  RH  029%=      5-min Rain = 0
KGDS 152250Z 28004KT 13/M04 A3013 RMK A01 T01321041  RH  030%=      5-min Rain = 0
KGDS 152255Z 25003KT 13/M05 A3013 RMK A01 T01311049  RH  029%=      5-min Rain = 0
KGDS 152300Z 24003KT 13/M05 A3013 RMK A01 T01331046  RH  029%=      5-min Rain = 0
KGDS 152305Z 24003KT 13/M04 A3013 RMK A01 T01321044  RH  029%=      5-min Rain = 0
KGDS 152310Z 26004KT 13/M04 A3013 RMK A01 T01321040  RH  030%=      5-min Rain = 0
KGDS 152315Z 25005KT 13/M04 A3013 RMK A01 T01311041  RH  030%=      5-min Rain = 0
KGDS 152320Z 25004KT 13/M04 A3013 RMK A01 T01301037  RH  032%=      5-min Rain = 0
KGDS 152325Z 25002KT 13/M04 A3012 RMK A01 T01311042  RH  030%=      5-min Rain = 0
KGDS 152330Z 26003KT 13/M04 A3012 RMK A01 T01311040  RH  030%=      5-min Rain = 0
KGDS 152335Z 23004KT 13/M03 A3012 RMK A01 T01301027  RH  034%=      5-min Rain = 0
KGDS 152340Z 21004KT 13/M02 A3012 RMK A01 T01281024  RH  035%=      5-min Rain = 0
KGDS 152345Z 24005KT 13/M02 A3012 RMK A01 T01261024  RH  036%=      5-min Rain = 0
KGDS 152350Z 23004KT 13/M02 A3012 RMK A01 T01251017  RH  038%=      5-min Rain = 0
KGDS 152355Z 22004KT 12/M01 A3012 RMK A01 T01241006  RH  041%=      5-min Rain = 0
KGDS 160000Z 20005KT 12/M01 A3012 RMK A01 T01201009  RH  041%=      5-min Rain = 0
KGDS 160005Z 20004KT 12/M00 A3011 RMK A01 T01181003  RH  044%=      5-min Rain = 0
KGDS 160010Z 21003KT 12/M00 A3011 RMK A01 T01161003  RH  044%=      5-min Rain = 0
KGDS 160015Z 20003KT 12/01 A3011 RMK A01 T01150005  RH  047%=      5-min Rain = 0
KGDS 160020Z 20003KT 11/00 A3011 RMK A01 T01110004  RH  048%=      5-min Rain = 0
KGDS 160025Z 19004KT 11/M00 A3011 RMK A01 T01091001  RH  047%=      5-min Rain = 0
KGDS 160030Z 19004KT 11/00 A3011 RMK A01 T01050000  RH  049%=      5-min Rain = 0
KGDS 160035Z 19004KT 11/M01 A3011 RMK A01 T01051013  RH  045%=      5-min Rain = 0
KGDS 160040Z 19004KT 10/M02 A3011 RMK A01 T01031016  RH  044%=      5-min Rain = 0
KGDS 160045Z 18004KT 10/M01 A3011 RMK A01 T01011014  RH  045%=      5-min Rain = 0
KGDS 160050Z 18004KT 10/M02 A3011 RMK A01 T01001015  RH  045%=      5-min Rain = 0
KGDS 160055Z 18005KT 10/M02 A3011 RMK A01 T01001015  RH  045%=      5-min Rain = 0
KGDS 160100Z 17005KT 10/M01 A3012 RMK A01 T00991013  RH  046%=      5-min Rain = 0
KGDS 160105Z 17005KT 10/M02 A3012 RMK A01 T00951016  RH  046%=      5-min Rain = 0
KGDS 160110Z 17006KT 09/M02 A3012 RMK A01 T00931018  RH  046%=      5-min Rain = 0
KGDS 160115Z 16006KT 09/M01 A3011 RMK A01 T00891009  RH  051%=      5-min Rain = 0
KGDS 160120Z 16007KT 09/M01 A3012 RMK A01 T00871006  RH  053%=      5-min Rain = 0
KGDS 160125Z 16006KT 09/M01 A3012 RMK A01 T00851009  RH  052%=      5-min Rain = 0
KGDS 160130Z 16006KT 08/M01 A3012 RMK A01 T00831010  RH  052%=      5-min Rain = 0
KGDS 160135Z 16006KT 08/M01 A3012 RMK A01 T00811011  RH  053%=      5-min Rain = 0
KGDS 160140Z 16006KT 08/M01 A3012 RMK A01 T00801011  RH  053%=      5-min Rain = 0
KGDS 160145Z 16006KT 08/M01 A3012 RMK A01 T00781010  RH  054%=      5-min Rain = 0
KGDS 160150Z 16006KT 08/M01 A3012 RMK A01 T00751011  RH  055%=      5-min Rain = 0
KGDS 160155Z 16006KT 07/M01 A3012 RMK A01 T00741012  RH  055%=      5-min Rain = 0
KGDS 160200Z 16007KT 07/M01 A3012 RMK A01 T00701010  RH  057%=      5-min Rain = 0
KGDS 160205Z 15007KT 07/M01 A3012 RMK A01 T00671009  RH  059%=      5-min Rain = 0
KGDS 160210Z 15007KT 07/M01 A3012 RMK A01 T00651009  RH  060%=      5-min Rain = 0
KGDS 160215Z 15007KT 07/M01 A3012 RMK A01 T00651008  RH  060%=      5-min Rain = 0
KGDS 160220Z 15007KT 06/M01 A3012 RMK A01 T00641006  RH  061%=      5-min Rain = 0
KGDS 160225Z 15006KT 06/M01 A3012 RMK A01 T00631006  RH  062%=      5-min Rain = 0
KGDS 160230Z 15006KT 06/M01 A3012 RMK A01 T00631007  RH  061%=      5-min Rain = 0
KGDS 160235Z 15006KT 06/M01 A3012 RMK A01 T00631007  RH  062%=      5-min Rain = 0
KGDS 160240Z 15006KT 06/M01 A3012 RMK A01 T00621009  RH  061%=      5-min Rain = 0
KGDS 160245Z 16006KT 06/M01 A3012 RMK A01 T00611009  RH  061%=      5-min Rain = 0
KGDS 160250Z 16005KT 06/M01 A3012 RMK A01 T00621009  RH  061%=      5-min Rain = 0
KGDS 160255Z 16005KT 06/M01 A3012 RMK A01 T00621010  RH  061%=      5-min Rain = 0
KGDS 160300Z 17005KT 06/M01 A3012 RMK A01 T00631011  RH  060%=      5-min Rain = 0
KGDS 160305Z 17006KT 06/M01 A3012 RMK A01 T00601008  RH  063%=      5-min Rain = 0
KGDS 160310Z 17006KT 06/M01 A3012 RMK A01 T00551009  RH  064%=      5-min Rain = 0
KGDS 160315Z 17006KT 05/M01 A3012 RMK A01 T00521011  RH  065%=      5-min Rain = 0
KGDS 160320Z 18006KT 05/M01 A3012 RMK A01 T00531012  RH  064%=      5-min Rain = 0
KGDS 160325Z 18005KT 05/M01 A3012 RMK A01 T00531009  RH  065%=      5-min Rain = 0
KGDS 160330Z 18006KT 05/M01 A3012 RMK A01 T00491010  RH  066%=      5-min Rain = 0
KGDS 160335Z 18006KT 05/M01 A3012 RMK A01 T00461010  RH  068%=      5-min Rain = 0
KGDS 160340Z 18005KT 05/M01 A3012 RMK A01 T00451008  RH  069%=      5-min Rain = 0
KGDS 160345Z 18005KT 04/M01 A3012 RMK A01 T00431008  RH  070%=      5-min Rain = 0
KGDS 160350Z 18005KT 04/M01 A3012 RMK A01 T00411007  RH  072%=      5-min Rain = 0
KGDS 160355Z 18005KT 04/M01 A3012 RMK A01 T00401008  RH  072%=      5-min Rain = 0
KGDS 160400Z 18005KT 04/M01 A3012 RMK A01 T00401008  RH  072%=      5-min Rain = 0
KGDS 160405Z 19006KT 04/M01 A3012 RMK A01 T00391010  RH  071%=      5-min Rain = 0
KGDS 160410Z 19006KT 04/M01 A3012 RMK A01 T00391008  RH  072%=      5-min Rain = 0
KGDS 160415Z 19006KT 04/M01 A3012 RMK A01 T00381007  RH  073%=      5-min Rain = 0
KGDS 160420Z 19006KT 04/M01 A3012 RMK A01 T00381006  RH  074%=      5-min Rain = 0
KGDS 160425Z 19006KT 04/M01 A3012 RMK A01 T00351009  RH  074%=      5-min Rain = 0
KGDS 160430Z 20006KT 03/M01 A3011 RMK A01 T00321008  RH  076%=      5-min Rain = 0
KGDS 160435Z 20006KT 03/M01 A3011 RMK A01 T00291008  RH  078%=      5-min Rain = 0
KGDS 160440Z 20006KT 03/M01 A3011 RMK A01 T00291008  RH  078%=      5-min Rain = 0
KGDS 160445Z 19006KT 03/M01 A3011 RMK A01 T00271009  RH  078%=      5-min Rain = 0
KGDS 160450Z 19006KT 03/M01 A3011 RMK A01 T00281009  RH  078%=      5-min Rain = 0
KGDS 160455Z 19006KT 03/M01 A3011 RMK A01 T00281009  RH  078%=      5-min Rain = 0
KGDS 160500Z 18006KT 03/M01 A3011 RMK A01 T00291010  RH  076%=      5-min Rain = 0
KGDS 160505Z 19006KT 03/M01 A3011 RMK A01 T00291010  RH  076%=      5-min Rain = 0
KGDS 160510Z 19006KT 03/M01 A3011 RMK A01 T00291010  RH  076%=      5-min Rain = 0
KGDS 160515Z 19006KT 03/M01 A3011 RMK A01 T00291010  RH  077%=      5-min Rain = 0
KGDS 160520Z 19005KT 03/M01 A3011 RMK A01 T00291010  RH  077%=      5-min Rain = 0
KGDS 160525Z 20005KT 03/M01 A3011 RMK A01 T00291009  RH  077%=      5-min Rain = 0
KGDS 160530Z 20006KT 03/M01 A3011 RMK A01 T00291009  RH  077%=      5-min Rain = 0
KGDS 160535Z 20006KT 03/M01 A3011 RMK A01 T00291010  RH  077%=      5-min Rain = 0
KGDS 160540Z 20006KT 03/M01 A3011 RMK A01 T00291010  RH  076%=      5-min Rain = 0
KGDS 160545Z 20006KT 03/M01 A3011 RMK A01 T00281011  RH  076%=      5-min Rain = 0
KGDS 160550Z 20006KT 03/M01 A3011 RMK A01 T00261013  RH  076%=      5-min Rain = 0
KGDS 160555Z 20006KT 03/M01 A3011 RMK A01 T00251014  RH  076%=      5-min Rain = 0

Page generated in 0.0252 seconds.